createdAt,value
2023-01-20T00:01:20.030Z,14.73
2023-01-20T00:03:48.004Z,15.60
2023-01-20T00:06:14.983Z,15.70
2023-01-20T00:08:41.688Z,15.35
2023-01-20T00:11:11.177Z,13.93
2023-01-20T00:13:39.039Z,13.55
2023-01-20T00:16:08.204Z,14.30
2023-01-20T00:18:35.436Z,12.73
2023-01-20T00:21:04.363Z,13.13
2023-01-20T00:23:31.495Z,12.93
2023-01-20T00:25:58.084Z,13.98
2023-01-20T00:28:24.692Z,12.85
2023-01-20T00:30:51.286Z,13.30
2023-01-20T00:33:17.922Z,13.23
2023-01-20T00:35:44.491Z,14.05
2023-01-20T00:38:11.034Z,13.55
2023-01-20T00:40:37.589Z,13.23
2023-01-20T00:43:04.281Z,13.85
2023-01-20T00:45:30.846Z,13.23
2023-01-20T00:47:57.409Z,11.98
2023-01-20T00:50:24.006Z,14.05
2023-01-20T00:52:50.569Z,13.18
2023-01-20T00:55:17.143Z,12.00
2023-01-20T00:57:43.669Z,13.68
2023-01-20T01:00:10.742Z,12.73
2023-01-20T01:02:39.679Z,12.35
2023-01-20T01:05:06.733Z,13.15
2023-01-20T01:07:33.301Z,13.60
2023-01-20T01:09:59.913Z,12.93
2023-01-20T01:12:26.526Z,12.30
2023-01-20T01:14:53.134Z,13.65
2023-01-20T01:17:19.766Z,11.88
2023-01-20T01:19:46.291Z,12.07
2023-01-20T01:22:12.815Z,11.45
2023-01-20T01:24:39.431Z,11.90
2023-01-20T01:27:05.996Z,12.20
2023-01-20T01:29:32.579Z,12.38
2023-01-20T01:31:59.153Z,11.50
2023-01-20T01:34:25.709Z,11.70
2023-01-20T01:36:52.268Z,12.40
2023-01-20T01:39:18.865Z,11.63
2023-01-20T01:41:45.461Z,12.10
2023-01-20T01:44:14.112Z,12.70
2023-01-20T01:46:41.688Z,12.00
2023-01-20T01:49:09.241Z,13.00
2023-01-20T01:51:41.648Z,11.15
2023-01-20T01:54:13.251Z,12.77
2023-01-20T01:56:42.286Z,12.98
2023-01-20T01:59:09.648Z,12.73
2023-01-20T02:01:39.984Z,12.48
2023-01-20T02:04:11.214Z,12.77
2023-01-20T02:06:41.801Z,12.93
2023-01-20T02:09:08.731Z,12.50
2023-01-20T02:11:48.633Z,12.25
2023-01-20T02:14:17.725Z,13.18
2023-01-20T02:17:14.880Z,12.88
2023-01-20T02:20:12.259Z,13.43
2023-01-20T02:25:40.503Z,12.13
2023-01-20T02:28:23.230Z,12.30
2023-01-20T02:31:11.622Z,12.40
2023-01-20T02:33:52.892Z,12.15
2023-01-20T02:36:34.821Z,13.32
2023-01-20T02:39:26.954Z,13.45
2023-01-20T02:42:08.014Z,12.57
2023-01-20T02:44:46.870Z,12.45
2023-01-20T02:47:33.931Z,12.55
2023-01-20T02:50:00.533Z,12.60
2023-01-20T02:52:31.442Z,13.35
2023-01-20T02:55:04.149Z,11.85
2023-01-20T02:57:40.579Z,12.70
2023-01-20T03:02:41.808Z,13.38
2023-01-20T03:05:14.581Z,12.10
2023-01-20T03:07:45.722Z,13.60
2023-01-20T03:10:16.577Z,14.07
2023-01-20T03:12:51.119Z,13.82
2023-01-20T03:15:23.476Z,14.25
2023-01-20T03:17:50.598Z,13.25
2023-01-20T03:20:17.520Z,12.88
2023-01-20T03:22:44.107Z,13.27
2023-01-20T03:25:13.733Z,12.85
2023-01-20T03:27:42.243Z,13.93
2023-01-20T03:30:16.960Z,13.38
2023-01-20T03:32:47.302Z,12.65
2023-01-20T03:35:16.501Z,12.82
2023-01-20T03:37:44.645Z,13.52
2023-01-20T03:40:13.025Z,13.65
2023-01-20T03:43:00.108Z,13.15
2023-01-20T03:45:33.254Z,13.68
2023-01-20T03:48:00.768Z,12.70
2023-01-20T03:50:47.174Z,12.25
2023-01-20T03:53:17.935Z,14.98
2023-01-20T03:55:52.247Z,12.57
2023-01-20T03:58:29.496Z,13.43
2023-01-20T04:00:57.803Z,14.48
2023-01-20T04:03:31.439Z,14.35
2023-01-20T04:06:00.709Z,14.57
2023-01-20T04:08:35.460Z,14.50
2023-01-20T04:11:06.296Z,15.27
2023-01-20T04:13:33.070Z,14.20
2023-01-20T04:16:02.096Z,14.25
2023-01-20T04:18:29.124Z,14.70
2023-01-20T04:21:01.470Z,13.93
2023-01-20T04:23:34.551Z,15.38
2023-01-20T04:26:01.201Z,15.68
2023-01-20T04:28:27.845Z,14.52
2023-01-20T04:30:54.463Z,14.02
2023-01-20T04:33:21.159Z,15.32
2023-01-20T04:35:47.772Z,15.15
2023-01-20T04:38:14.383Z,16.27
2023-01-20T04:40:41.306Z,14.68
2023-01-20T04:43:10.047Z,14.27
2023-01-20T04:45:36.641Z,15.25
2023-01-20T04:48:07.533Z,14.48
2023-01-20T04:50:38.871Z,14.27
2023-01-20T04:53:05.617Z,15.40
2023-01-20T04:55:33.217Z,15.35
2023-01-20T04:57:59.769Z,15.23
2023-01-20T05:00:26.318Z,15.35
2023-01-20T05:02:52.989Z,15.55
2023-01-20T05:05:19.538Z,15.18
2023-01-20T05:07:46.137Z,16.38
2023-01-20T05:10:13.344Z,14.85
2023-01-20T05:12:41.362Z,15.00
2023-01-20T05:15:08.401Z,14.55
2023-01-20T05:17:35.004Z,14.05
2023-01-20T05:20:01.590Z,13.43
2023-01-20T05:22:29.517Z,13.45
2023-01-20T05:24:56.162Z,13.55
2023-01-20T05:27:22.699Z,13.52
2023-01-20T05:29:49.280Z,13.60
2023-01-20T05:32:15.904Z,13.23
2023-01-20T05:34:42.624Z,13.25
2023-01-20T05:37:09.223Z,12.35
2023-01-20T05:39:35.809Z,12.32
2023-01-20T05:42:02.686Z,11.43
2023-01-20T05:44:29.318Z,11.15
2023-01-20T05:46:55.851Z,12.82
2023-01-20T05:49:22.471Z,13.13
2023-01-20T05:51:49.026Z,13.75
2023-01-20T05:54:15.693Z,13.55
2023-01-20T05:56:42.329Z,12.88
2023-01-20T05:59:09.768Z,13.38
2023-01-20T06:01:36.691Z,12.73
2023-01-20T06:04:03.416Z,12.25
2023-01-20T06:06:30.042Z,14.35
2023-01-20T06:08:56.644Z,13.20
2023-01-20T06:11:23.629Z,12.65
2023-01-20T06:13:50.670Z,13.43
2023-01-20T06:16:18.037Z,13.00
2023-01-20T06:18:44.723Z,13.10
2023-01-20T06:21:11.684Z,12.70
2023-01-20T06:23:38.408Z,12.02
2023-01-20T06:26:07.837Z,13.07
2023-01-20T06:28:34.856Z,13.07
2023-01-20T06:31:05.216Z,13.68
2023-01-20T06:33:33.179Z,14.13
2023-01-20T06:36:00.098Z,13.30
2023-01-20T06:38:29.995Z,14.43
2023-01-20T06:40:58.815Z,13.90
2023-01-20T06:43:25.787Z,14.00
2023-01-20T06:45:52.383Z,13.45
2023-01-20T06:48:18.959Z,15.43
2023-01-20T06:50:45.517Z,15.35
2023-01-20T06:53:12.079Z,16.42
2023-01-20T06:55:38.651Z,15.80
2023-01-20T06:58:05.211Z,16.48
2023-01-20T07:00:31.872Z,17.00
2023-01-20T07:02:58.452Z,16.58
2023-01-20T07:05:24.983Z,16.10
2023-01-20T07:07:51.539Z,16.20
2023-01-20T07:10:18.242Z,15.40
2023-01-20T07:12:44.862Z,18.15
2023-01-20T07:15:11.789Z,18.17
2023-01-20T07:17:38.355Z,16.75
2023-01-20T07:20:05.322Z,16.52
2023-01-20T07:22:31.895Z,17.27
2023-01-20T07:24:58.489Z,15.75
2023-01-20T07:27:25.102Z,16.95
2023-01-20T07:29:51.678Z,18.38
2023-01-20T07:32:18.291Z,18.08
2023-01-20T07:34:44.879Z,17.15
2023-01-20T07:37:11.536Z,17.45
2023-01-20T07:39:38.215Z,18.48
2023-01-20T07:42:04.876Z,19.75
2023-01-20T07:44:32.804Z,18.20
2023-01-20T07:46:59.517Z,18.27
2023-01-20T07:49:26.269Z,19.98
2023-01-20T07:51:52.878Z,18.05
2023-01-20T07:54:22.650Z,18.33
2023-01-20T07:56:49.231Z,19.80
2023-01-20T07:59:18.985Z,20.42
2023-01-20T08:01:45.732Z,20.63
2023-01-20T08:04:13.209Z,18.63
2023-01-20T08:06:40.019Z,19.90
2023-01-20T08:09:09.658Z,21.25
2023-01-20T08:11:36.237Z,21.10
2023-01-20T08:14:02.795Z,20.60
2023-01-20T08:16:29.464Z,18.50
2023-01-20T08:18:56.097Z,19.40
2023-01-20T08:21:26.615Z,20.48
2023-01-20T08:23:55.654Z,19.00
2023-01-20T08:26:24.938Z,19.95
2023-01-20T08:28:52.116Z,20.90
2023-01-20T08:31:21.392Z,20.63
2023-01-20T08:33:48.867Z,20.95
2023-01-20T08:36:18.425Z,21.63
2023-01-20T08:38:45.483Z,20.67
2023-01-20T08:41:16.416Z,20.17
2023-01-20T08:43:43.623Z,19.17
2023-01-20T08:46:12.874Z,19.20
2023-01-20T08:48:41.582Z,18.25
2023-01-20T08:51:14.369Z,18.63
2023-01-20T08:53:42.088Z,17.15
2023-01-20T08:56:09.772Z,17.92
2023-01-20T08:58:36.578Z,18.60
2023-01-20T09:01:08.644Z,18.08
2023-01-20T09:03:35.356Z,18.80
2023-01-20T09:06:03.452Z,17.58
2023-01-20T09:08:30.636Z,16.55
2023-01-20T09:11:14.069Z,16.27
2023-01-20T09:13:41.313Z,16.88
2023-01-20T09:16:11.042Z,17.55
2023-01-20T09:18:37.700Z,17.98
2023-01-20T09:21:06.839Z,17.30
2023-01-20T09:23:35.399Z,18.48
2023-01-20T09:26:04.682Z,18.10
2023-01-20T09:28:31.446Z,17.88
2023-01-20T09:31:04.455Z,18.05
2023-01-20T09:33:32.336Z,18.65
2023-01-20T09:36:00.209Z,19.38
2023-01-20T09:38:42.910Z,17.88
2023-01-20T09:41:24.640Z,18.30
2023-01-20T09:44:04.448Z,17.38
2023-01-20T09:46:37.930Z,17.73
2023-01-20T09:49:44.389Z,18.58
2023-01-20T09:52:38.948Z,18.25
2023-01-20T09:55:14.191Z,17.35
2023-01-20T09:57:48.888Z,18.17
2023-01-20T10:00:21.851Z,17.40
2023-01-20T10:02:54.295Z,18.27
2023-01-20T10:05:25.775Z,18.58
2023-01-20T10:07:58.458Z,18.88
2023-01-20T10:10:31.030Z,19.77
2023-01-20T10:13:19.492Z,18.95
2023-01-20T10:15:52.742Z,19.45
2023-01-20T10:18:28.592Z,19.25
2023-01-20T10:21:12.657Z,19.33
2023-01-20T10:23:55.067Z,19.23
2023-01-20T10:26:42.234Z,20.17
2023-01-20T10:29:17.487Z,20.25
2023-01-20T10:31:52.220Z,19.63
2023-01-20T10:34:20.869Z,19.55
2023-01-20T10:36:56.183Z,19.05
2023-01-20T10:39:31.087Z,19.42
2023-01-20T10:42:12.330Z,20.33
2023-01-20T10:44:39.729Z,20.63
2023-01-20T10:47:17.527Z,20.10
2023-01-20T10:49:52.867Z,20.88
2023-01-20T10:52:35.026Z,20.27
2023-01-20T10:55:25.077Z,21.13
2023-01-20T10:58:00.637Z,21.88
2023-01-20T11:00:30.171Z,22.63
2023-01-20T11:03:00.059Z,20.83
2023-01-20T11:05:31.148Z,21.83
2023-01-20T11:08:00.406Z,24.45
2023-01-20T11:10:29.653Z,22.50
2023-01-20T11:12:59.696Z,23.35
2023-01-20T11:15:33.710Z,22.33
2023-01-20T11:18:15.579Z,21.60
2023-01-20T11:20:46.968Z,23.08
2023-01-20T11:23:44.198Z,22.60
2023-01-20T11:26:29.183Z,22.48
2023-01-20T11:29:00.427Z,22.63
2023-01-20T11:31:47.701Z,24.20
2023-01-20T11:34:31.317Z,23.05
2023-01-20T11:37:19.770Z,23.13
2023-01-20T11:40:00.595Z,24.00
2023-01-20T11:42:30.854Z,24.05
2023-01-20T11:45:19.801Z,24.63
2023-01-20T11:48:00.792Z,24.02
2023-01-20T11:50:30.121Z,23.40
2023-01-20T11:53:16.649Z,22.63
2023-01-20T11:55:53.658Z,24.45
2023-01-20T11:58:24.911Z,23.38
2023-01-20T12:01:08.007Z,23.15
2023-01-20T12:04:05.222Z,22.30
2023-01-20T12:06:43.380Z,22.50
2023-01-20T12:09:15.724Z,21.63
2023-01-20T12:11:56.395Z,22.08
2023-01-20T12:14:29.774Z,22.17
2023-01-20T12:17:05.518Z,23.08
2023-01-20T12:19:41.008Z,23.98
2023-01-20T12:22:14.476Z,23.87
2023-01-20T12:25:07.367Z,22.63
2023-01-20T12:27:36.912Z,23.52
2023-01-20T12:30:16.489Z,23.33
2023-01-20T12:32:43.254Z,24.65
2023-01-20T12:35:14.627Z,25.42
2023-01-20T12:37:50.364Z,25.35
2023-01-20T12:40:35.542Z,26.25
2023-01-20T12:43:09.279Z,25.15
2023-01-20T12:45:53.240Z,25.83
2023-01-20T12:48:35.570Z,25.38
2023-01-20T12:51:22.652Z,25.23
2023-01-20T12:54:10.824Z,26.52
2023-01-20T12:56:47.614Z,24.55
2023-01-20T12:59:25.060Z,25.48
2023-01-20T13:01:59.903Z,25.13
2023-01-20T13:04:56.958Z,26.23
2023-01-20T13:07:52.569Z,25.98
2023-01-20T13:10:42.241Z,25.35
2023-01-20T13:13:17.965Z,26.13
2023-01-20T13:15:48.509Z,25.70
2023-01-20T13:18:37.019Z,24.90
2023-01-20T13:21:03.750Z,25.58
2023-01-20T13:23:35.600Z,23.42
2023-01-20T13:26:05.186Z,23.45
2023-01-20T13:28:32.250Z,24.40
2023-01-20T13:31:00.576Z,24.98
2023-01-20T13:33:42.708Z,24.77
2023-01-20T13:36:17.935Z,24.10
2023-01-20T13:38:45.590Z,25.25
2023-01-20T13:41:32.556Z,24.83
2023-01-20T13:46:44.329Z,23.20
2023-01-20T13:49:13.190Z,24.38
2023-01-20T13:51:45.998Z,24.98
2023-01-20T13:54:35.408Z,25.02
2023-01-20T13:57:35.653Z,24.65
2023-01-20T14:00:08.017Z,25.50
2023-01-20T14:02:37.463Z,25.70
2023-01-20T14:05:18.573Z,24.50
2023-01-20T14:07:45.262Z,25.45
2023-01-20T14:10:12.593Z,26.33
2023-01-20T14:12:41.427Z,24.45
2023-01-20T14:15:25.626Z,25.98
2023-01-20T14:17:55.204Z,25.88
2023-01-20T14:20:24.042Z,23.80
2023-01-20T14:22:50.691Z,24.48
2023-01-20T14:25:26.848Z,25.27
2023-01-20T14:27:53.583Z,24.60
2023-01-20T14:30:26.193Z,23.70
2023-01-20T14:32:53.626Z,23.40
2023-01-20T14:35:28.987Z,24.02
2023-01-20T14:37:55.798Z,24.30
2023-01-20T14:40:37.685Z,23.33
2023-01-20T14:43:14.389Z,24.13
2023-01-20T14:45:45.108Z,22.95
2023-01-20T14:48:24.739Z,23.38
2023-01-20T14:51:02.607Z,24.00
2023-01-20T14:53:29.259Z,23.63
2023-01-20T14:56:01.208Z,25.35
2023-01-20T14:58:30.568Z,23.80
2023-01-20T15:01:02.145Z,25.10
2023-01-20T15:03:30.129Z,24.05
2023-01-20T15:05:58.463Z,25.10
2023-01-20T15:08:26.722Z,23.67
2023-01-20T15:11:09.859Z,24.90
2023-01-20T15:13:38.988Z,25.80
2023-01-20T15:16:18.017Z,25.10
2023-01-20T15:19:05.225Z,25.98
2023-01-20T15:21:35.311Z,26.48
2023-01-20T15:24:17.297Z,27.83
2023-01-20T15:26:45.345Z,25.52
2023-01-20T15:29:29.915Z,27.65
2023-01-20T15:31:58.747Z,25.48
2023-01-20T15:34:27.530Z,26.85
2023-01-20T15:36:55.729Z,26.83
2023-01-20T15:39:25.971Z,26.52
2023-01-20T15:41:55.760Z,24.60
2023-01-20T15:44:24.373Z,25.98
2023-01-20T15:46:51.727Z,26.52
2023-01-20T15:49:18.776Z,26.23
2023-01-20T15:51:45.568Z,26.05
2023-01-20T15:54:13.746Z,25.67
2023-01-20T15:56:45.142Z,27.30
2023-01-20T15:59:12.437Z,25.52
2023-01-20T16:01:42.677Z,27.13
2023-01-20T16:04:09.511Z,25.50
2023-01-20T16:06:37.565Z,28.75
2023-01-20T16:09:16.727Z,29.27
2023-01-20T16:11:43.309Z,28.42
2023-01-20T16:14:09.864Z,28.50
2023-01-20T16:16:36.602Z,26.98
2023-01-20T16:19:04.721Z,26.35
2023-01-20T16:21:31.979Z,26.75
2023-01-20T16:23:59.024Z,27.38
2023-01-20T16:26:28.288Z,29.13
2023-01-20T16:28:57.408Z,26.35
2023-01-20T16:31:25.550Z,27.13
2023-01-20T16:33:53.424Z,27.45
2023-01-20T16:36:23.125Z,28.58
2023-01-20T16:38:50.633Z,28.90
2023-01-20T16:41:25.931Z,28.77
2023-01-20T16:43:54.058Z,28.73
2023-01-20T16:46:22.254Z,29.75
2023-01-20T16:48:49.601Z,30.20
2023-01-20T16:51:18.999Z,28.25
2023-01-20T16:53:45.631Z,29.80
2023-01-20T16:56:15.208Z,30.52
2023-01-20T16:58:42.464Z,28.48
2023-01-20T17:01:12.079Z,27.98
2023-01-20T17:03:39.996Z,26.75
2023-01-20T17:06:11.032Z,28.15
2023-01-20T17:08:37.680Z,26.63
2023-01-20T17:11:04.401Z,28.17
2023-01-20T17:13:30.988Z,28.50
2023-01-20T17:15:59.226Z,31.20
2023-01-20T17:18:25.854Z,29.73
2023-01-20T17:20:55.734Z,29.08
2023-01-20T17:23:22.310Z,29.17
2023-01-20T17:25:48.919Z,30.33
2023-01-20T17:28:15.561Z,30.90
2023-01-20T17:30:42.234Z,27.95
2023-01-20T17:33:08.835Z,30.77
2023-01-20T17:35:35.418Z,29.55
2023-01-20T17:38:01.998Z,29.67
2023-01-20T17:40:28.626Z,29.88
2023-01-20T17:42:55.301Z,29.90
2023-01-20T17:45:21.918Z,28.55
2023-01-20T17:47:51.191Z,29.77
2023-01-20T17:50:18.398Z,29.13
2023-01-20T17:52:45.105Z,28.77
2023-01-20T17:55:11.749Z,28.55
2023-01-20T17:57:38.309Z,30.02
2023-01-20T18:00:06.325Z,30.13
2023-01-20T18:02:32.961Z,30.90
2023-01-20T18:04:59.606Z,30.27
2023-01-20T18:07:26.198Z,29.95
2023-01-20T18:09:52.838Z,29.73
2023-01-20T18:12:21.496Z,28.88
2023-01-20T18:14:48.173Z,30.98
2023-01-20T18:17:14.805Z,30.73
2023-01-20T18:19:41.407Z,30.58
2023-01-20T18:22:10.280Z,31.15
2023-01-20T18:24:37.014Z,30.50
2023-01-20T18:27:03.659Z,33.17
2023-01-20T18:29:30.241Z,32.15
2023-01-20T18:31:58.175Z,30.90
2023-01-20T18:34:25.000Z,32.35
2023-01-20T18:36:51.955Z,31.83
2023-01-20T18:39:21.120Z,31.48
2023-01-20T18:41:48.659Z,31.33
2023-01-20T18:44:16.182Z,31.52
2023-01-20T18:46:42.856Z,30.27
2023-01-20T18:49:13.649Z,30.10
2023-01-20T18:51:42.318Z,30.63
2023-01-20T18:54:12.416Z,31.23
2023-01-20T18:56:40.057Z,30.30
2023-01-20T18:59:07.542Z,30.95
2023-01-20T19:01:36.804Z,30.95
2023-01-20T19:04:04.555Z,31.48
2023-01-20T19:06:35.024Z,31.65
2023-01-20T19:09:01.798Z,31.67
2023-01-20T19:11:31.645Z,31.80
2023-01-20T19:13:59.176Z,31.02
2023-01-20T19:16:29.231Z,30.05
2023-01-20T19:18:57.920Z,31.50
2023-01-20T19:21:25.741Z,32.10
2023-01-20T19:23:55.015Z,32.25
2023-01-20T19:26:23.714Z,30.95
2023-01-20T19:29:11.797Z,30.25
2023-01-20T19:31:40.086Z,29.85
2023-01-20T19:34:08.272Z,30.23
2023-01-20T19:36:35.210Z,32.08
2023-01-20T19:39:01.942Z,30.50
2023-01-20T19:41:33.236Z,30.35
2023-01-20T19:44:01.267Z,29.88
2023-01-20T19:46:30.110Z,29.75
2023-01-20T19:48:58.348Z,30.30
2023-01-20T19:51:25.835Z,30.98
2023-01-20T19:53:58.145Z,31.40
2023-01-20T19:56:26.848Z,30.50
2023-01-20T19:58:57.855Z,31.30
2023-01-20T20:01:31.811Z,32.03
2023-01-20T20:03:59.550Z,30.98
2023-01-20T20:06:46.179Z,29.85
2023-01-20T20:09:17.649Z,29.83
2023-01-20T20:11:44.703Z,28.80
2023-01-20T20:14:13.964Z,29.85
2023-01-20T20:16:40.989Z,29.70
2023-01-20T20:19:11.424Z,28.77
2023-01-20T20:21:38.045Z,28.45
2023-01-20T20:24:06.155Z,29.77
2023-01-20T20:26:36.138Z,31.85
2023-01-20T20:29:04.837Z,30.23
2023-01-20T20:31:32.293Z,30.83
2023-01-20T20:33:59.931Z,30.83
2023-01-20T20:36:29.504Z,28.25
2023-01-20T20:38:57.776Z,30.15
2023-01-20T20:41:28.893Z,28.40
2023-01-20T20:43:57.562Z,29.08
2023-01-20T20:46:25.381Z,29.35
2023-01-20T20:48:54.783Z,27.17
2023-01-20T20:51:23.773Z,27.73
2023-01-20T20:53:53.967Z,28.63
2023-01-20T20:56:20.872Z,27.63
2023-01-20T20:59:00.565Z,28.98
2023-01-20T21:01:29.500Z,29.58
2023-01-20T21:03:57.890Z,29.80
2023-01-20T21:06:24.951Z,29.10
2023-01-20T21:08:51.979Z,29.90
2023-01-20T21:11:20.125Z,28.58
2023-01-20T21:13:49.138Z,28.45
2023-01-20T21:16:20.728Z,28.95
2023-01-20T21:18:47.832Z,29.17
2023-01-20T21:21:17.486Z,30.58
2023-01-20T21:23:48.631Z,28.65
2023-01-20T21:26:15.573Z,28.38
2023-01-20T21:28:43.075Z,28.98
2023-01-20T21:31:11.373Z,28.10
2023-01-20T21:33:39.001Z,28.60
2023-01-20T21:36:07.322Z,27.80
2023-01-20T21:38:34.075Z,29.20
2023-01-20T21:41:04.973Z,29.95
2023-01-20T21:43:48.767Z,30.77
2023-01-20T21:46:15.758Z,30.27
2023-01-20T21:48:57.758Z,31.88
2023-01-20T21:51:39.604Z,31.48
2023-01-20T21:54:06.156Z,31.73
2023-01-20T21:56:32.763Z,32.50
2023-01-20T21:58:59.308Z,31.65
2023-01-20T22:01:25.920Z,31.55
2023-01-20T22:03:52.502Z,29.27
2023-01-20T22:06:19.146Z,30.77
2023-01-20T22:08:45.757Z,31.95
2023-01-20T22:11:12.305Z,29.77
2023-01-20T22:13:38.882Z,30.60
2023-01-20T22:16:06.036Z,30.40
2023-01-20T22:18:32.630Z,31.85
2023-01-20T22:21:02.225Z,30.98
2023-01-20T22:23:31.542Z,30.20
2023-01-20T22:25:58.162Z,29.85
2023-01-20T22:28:24.884Z,29.90
2023-01-20T22:30:51.656Z,30.92
2023-01-20T22:33:18.228Z,30.33
2023-01-20T22:35:44.774Z,30.85
2023-01-20T22:38:11.356Z,28.60
2023-01-20T22:40:37.904Z,29.80
2023-01-20T22:43:04.647Z,29.48
2023-01-20T22:45:31.255Z,29.77
2023-01-20T22:47:57.947Z,28.13
2023-01-20T22:50:24.472Z,28.23
2023-01-20T22:52:51.030Z,28.75
2023-01-20T22:55:17.594Z,29.75
2023-01-20T22:57:44.250Z,28.75
2023-01-20T23:00:12.197Z,29.48
2023-01-20T23:02:39.161Z,30.88
2023-01-20T23:05:05.936Z,29.63
2023-01-20T23:07:34.705Z,29.13
2023-01-20T23:10:01.305Z,28.80
2023-01-20T23:12:28.128Z,29.73
2023-01-20T23:15:02.655Z,28.75
2023-01-20T23:17:31.065Z,28.95
2023-01-20T23:19:58.187Z,28.70
2023-01-20T23:22:24.785Z,28.85
2023-01-20T23:24:51.398Z,29.08
2023-01-20T23:27:17.997Z,28.05
2023-01-20T23:29:44.608Z,27.33
2023-01-20T23:32:11.185Z,28.05
2023-01-20T23:34:37.762Z,28.10
2023-01-20T23:37:04.368Z,28.45
2023-01-20T23:39:30.977Z,28.85
2023-01-20T23:41:57.933Z,27.90
2023-01-20T23:44:24.494Z,27.73
2023-01-20T23:46:51.073Z,28.33
2023-01-20T23:49:17.633Z,27.73
2023-01-20T23:51:44.196Z,29.90
2023-01-20T23:54:13.279Z,26.95
2023-01-20T23:56:40.175Z,27.60
2023-01-20T23:59:09.959Z,27.25
